sensor_id;sensor_type;location;lat;lon;timestamp;P1;durP1;ratioP1;P2;durP2;ratioP2
72205;SDS011;60111;48.286;7.812;2023-02-15T00:02:17;31.65;;;19.87;;
72205;SDS011;60111;48.286;7.812;2023-02-15T00:04:50;33.23;;;20.12;;
72205;SDS011;60111;48.286;7.812;2023-02-15T00:07:24;28.23;;;17.97;;
72205;SDS011;60111;48.286;7.812;2023-02-15T00:09:57;31.97;;;20.50;;
72205;SDS011;60111;48.286;7.812;2023-02-15T00:12:30;29.87;;;18.17;;
72205;SDS011;60111;48.286;7.812;2023-02-15T00:15:03;29.05;;;17.20;;
72205;SDS011;60111;48.286;7.812;2023-02-15T00:17:35;29.37;;;18.17;;
72205;SDS011;60111;48.286;7.812;2023-02-15T00:20:08;29.65;;;18.80;;
72205;SDS011;60111;48.286;7.812;2023-02-15T00:22:41;29.57;;;18.87;;
72205;SDS011;60111;48.286;7.812;2023-02-15T00:25:14;28.70;;;18.45;;
72205;SDS011;60111;48.286;7.812;2023-02-15T00:27:46;29.75;;;18.07;;
72205;SDS011;60111;48.286;7.812;2023-02-15T00:30:19;29.60;;;18.70;;
72205;SDS011;60111;48.286;7.812;2023-02-15T00:32:52;28.27;;;17.77;;
72205;SDS011;60111;48.286;7.812;2023-02-15T00:35:24;27.90;;;18.00;;
72205;SDS011;60111;48.286;7.812;2023-02-15T00:37:57;28.42;;;18.48;;
72205;SDS011;60111;48.286;7.812;2023-02-15T00:40:29;26.90;;;17.73;;
72205;SDS011;60111;48.286;7.812;2023-02-15T00:43:02;26.57;;;17.17;;
72205;SDS011;60111;48.286;7.812;2023-02-15T00:45:35;30.45;;;18.40;;
72205;SDS011;60111;48.286;7.812;2023-02-15T00:48:09;30.02;;;18.57;;
72205;SDS011;60111;48.286;7.812;2023-02-15T00:50:41;30.35;;;19.48;;
72205;SDS011;60111;48.286;7.812;2023-02-15T00:53:20;28.87;;;18.23;;
72205;SDS011;60111;48.286;7.812;2023-02-15T00:56:02;26.80;;;18.27;;
72205;SDS011;60111;48.286;7.812;2023-02-15T00:58:35;29.92;;;19.20;;
72205;SDS011;60111;48.286;7.812;2023-02-15T01:01:11;40.85;;;19.98;;
72205;SDS011;60111;48.286;7.812;2023-02-15T01:03:45;29.92;;;19.35;;
72205;SDS011;60111;48.286;7.812;2023-02-15T01:06:19;31.15;;;18.12;;
72205;SDS011;60111;48.286;7.812;2023-02-15T01:08:51;30.72;;;20.30;;
72205;SDS011;60111;48.286;7.812;2023-02-15T01:11:24;31.30;;;19.45;;
72205;SDS011;60111;48.286;7.812;2023-02-15T01:13:57;29.72;;;19.23;;
72205;SDS011;60111;48.286;7.812;2023-02-15T01:16:30;27.40;;;17.90;;
72205;SDS011;60111;48.286;7.812;2023-02-15T01:19:03;35.88;;;20.23;;
72205;SDS011;60111;48.286;7.812;2023-02-15T01:21:36;31.43;;;19.43;;
72205;SDS011;60111;48.286;7.812;2023-02-15T01:24:13;29.48;;;19.00;;
72205;SDS011;60111;48.286;7.812;2023-02-15T01:26:46;30.60;;;19.00;;
72205;SDS011;60111;48.286;7.812;2023-02-15T01:29:19;29.48;;;19.30;;
72205;SDS011;60111;48.286;7.812;2023-02-15T01:31:52;33.48;;;20.85;;
72205;SDS011;60111;48.286;7.812;2023-02-15T01:34:24;33.15;;;19.35;;
72205;SDS011;60111;48.286;7.812;2023-02-15T01:36:57;30.70;;;19.02;;
72205;SDS011;60111;48.286;7.812;2023-02-15T01:39:29;33.50;;;19.80;;
72205;SDS011;60111;48.286;7.812;2023-02-15T01:42:02;27.70;;;18.70;;
72205;SDS011;60111;48.286;7.812;2023-02-15T01:52:51;30.43;;;20.20;;
72205;SDS011;60111;48.286;7.812;2023-02-15T01:55:25;28.92;;;19.60;;
72205;SDS011;60111;48.286;7.812;2023-02-15T01:58:00;30.52;;;18.95;;
72205;SDS011;60111;48.286;7.812;2023-02-15T02:00:35;28.87;;;18.48;;
72205;SDS011;60111;48.286;7.812;2023-02-15T02:03:07;30.80;;;19.37;;
72205;SDS011;60111;48.286;7.812;2023-02-15T02:05:40;27.40;;;17.55;;
72205;SDS011;60111;48.286;7.812;2023-02-15T02:08:13;29.67;;;18.97;;
72205;SDS011;60111;48.286;7.812;2023-02-15T02:10:46;31.25;;;18.82;;
72205;SDS011;60111;48.286;7.812;2023-02-15T02:13:19;27.62;;;18.20;;
72205;SDS011;60111;48.286;7.812;2023-02-15T02:15:57;32.08;;;18.73;;
72205;SDS011;60111;48.286;7.812;2023-02-15T02:18:49;33.02;;;20.45;;
72205;SDS011;60111;48.286;7.812;2023-02-15T02:27:26;32.10;;;18.92;;
72205;SDS011;60111;48.286;7.812;2023-02-15T02:33:20;27.85;;;17.17;;
72205;SDS011;60111;48.286;7.812;2023-02-15T02:36:06;29.80;;;19.17;;
72205;SDS011;60111;48.286;7.812;2023-02-15T02:41:49;32.93;;;19.05;;
72205;SDS011;60111;48.286;7.812;2023-02-15T02:44:29;35.43;;;20.20;;
72205;SDS011;60111;48.286;7.812;2023-02-15T02:47:09;28.70;;;18.42;;
72205;SDS011;60111;48.286;7.812;2023-02-15T02:49:46;28.03;;;18.23;;
72205;SDS011;60111;48.286;7.812;2023-02-15T02:52:39;35.15;;;19.62;;
72205;SDS011;60111;48.286;7.812;2023-02-15T02:55:15;42.35;;;19.15;;
72205;SDS011;60111;48.286;7.812;2023-02-15T03:01:08;28.47;;;18.25;;
72205;SDS011;60111;48.286;7.812;2023-02-15T03:03:45;33.48;;;19.17;;
72205;SDS011;60111;48.286;7.812;2023-02-15T03:06:29;29.00;;;18.77;;
72205;SDS011;60111;48.286;7.812;2023-02-15T03:09:03;30.62;;;18.90;;
72205;SDS011;60111;48.286;7.812;2023-02-15T03:11:37;28.27;;;18.35;;
72205;SDS011;60111;48.286;7.812;2023-02-15T03:14:09;31.60;;;18.92;;
72205;SDS011;60111;48.286;7.812;2023-02-15T03:16:45;37.13;;;19.75;;
72205;SDS011;60111;48.286;7.812;2023-02-15T03:19:23;31.00;;;19.92;;
72205;SDS011;60111;48.286;7.812;2023-02-15T03:22:08;31.90;;;18.82;;
72205;SDS011;60111;48.286;7.812;2023-02-15T03:27:16;28.70;;;17.42;;
72205;SDS011;60111;48.286;7.812;2023-02-15T03:29:54;44.75;;;20.48;;
72205;SDS011;60111;48.286;7.812;2023-02-15T03:32:29;36.93;;;20.68;;
72205;SDS011;60111;48.286;7.812;2023-02-15T03:35:05;32.30;;;18.62;;
72205;SDS011;60111;48.286;7.812;2023-02-15T03:37:41;40.17;;;21.77;;
72205;SDS011;60111;48.286;7.812;2023-02-15T03:40:40;36.65;;;22.00;;
72205;SDS011;60111;48.286;7.812;2023-02-15T03:43:48;39.45;;;21.02;;
72205;SDS011;60111;48.286;7.812;2023-02-15T03:49:11;28.05;;;17.77;;
72205;SDS011;60111;48.286;7.812;2023-02-15T03:51:45;31.90;;;17.85;;
72205;SDS011;60111;48.286;7.812;2023-02-15T03:54:23;28.52;;;18.02;;
72205;SDS011;60111;48.286;7.812;2023-02-15T03:57:15;32.00;;;19.20;;
72205;SDS011;60111;48.286;7.812;2023-02-15T04:00:15;28.92;;;17.87;;
72205;SDS011;60111;48.286;7.812;2023-02-15T04:03:23;28.27;;;17.80;;
72205;SDS011;60111;48.286;7.812;2023-02-15T04:06:06;28.17;;;18.23;;
72205;SDS011;60111;48.286;7.812;2023-02-15T04:08:39;30.10;;;19.32;;
72205;SDS011;60111;48.286;7.812;2023-02-15T04:11:30;33.55;;;19.70;;
72205;SDS011;60111;48.286;7.812;2023-02-15T04:14:02;26.93;;;17.50;;
72205;SDS011;60111;48.286;7.812;2023-02-15T04:16:37;31.68;;;18.73;;
72205;SDS011;60111;48.286;7.812;2023-02-15T04:19:09;32.15;;;19.05;;
72205;SDS011;60111;48.286;7.812;2023-02-15T04:22:00;27.20;;;18.02;;
72205;SDS011;60111;48.286;7.812;2023-02-15T04:24:51;26.05;;;16.35;;
72205;SDS011;60111;48.286;7.812;2023-02-15T04:27:47;23.18;;;16.05;;
72205;SDS011;60111;48.286;7.812;2023-02-15T04:30:17;27.90;;;17.77;;
72205;SDS011;60111;48.286;7.812;2023-02-15T04:32:52;24.07;;;16.50;;
72205;SDS011;60111;48.286;7.812;2023-02-15T04:35:27;25.30;;;17.17;;
72205;SDS011;60111;48.286;7.812;2023-02-15T04:38:02;27.07;;;17.77;;
72205;SDS011;60111;48.286;7.812;2023-02-15T04:40:34;24.60;;;16.30;;
72205;SDS011;60111;48.286;7.812;2023-02-15T04:43:07;23.20;;;15.93;;
72205;SDS011;60111;48.286;7.812;2023-02-15T04:45:39;24.50;;;16.95;;
72205;SDS011;60111;48.286;7.812;2023-02-15T04:48:12;31.83;;;18.30;;
72205;SDS011;60111;48.286;7.812;2023-02-15T04:50:44;35.43;;;17.57;;
72205;SDS011;60111;48.286;7.812;2023-02-15T04:53:17;27.17;;;16.87;;
72205;SDS011;60111;48.286;7.812;2023-02-15T04:55:49;27.55;;;17.15;;
72205;SDS011;60111;48.286;7.812;2023-02-15T04:58:22;26.25;;;17.05;;
72205;SDS011;60111;48.286;7.812;2023-02-15T05:00:55;31.73;;;19.02;;
72205;SDS011;60111;48.286;7.812;2023-02-15T05:03:27;24.67;;;16.70;;
72205;SDS011;60111;48.286;7.812;2023-02-15T05:06:00;30.10;;;19.17;;
72205;SDS011;60111;48.286;7.812;2023-02-15T05:08:33;30.12;;;17.52;;
72205;SDS011;60111;48.286;7.812;2023-02-15T05:11:05;31.33;;;19.77;;
72205;SDS011;60111;48.286;7.812;2023-02-15T05:13:38;32.97;;;20.87;;
72205;SDS011;60111;48.286;7.812;2023-02-15T05:16:10;30.08;;;19.02;;
72205;SDS011;60111;48.286;7.812;2023-02-15T05:18:43;35.58;;;20.37;;
72205;SDS011;60111;48.286;7.812;2023-02-15T05:21:16;35.88;;;22.30;;
72205;SDS011;60111;48.286;7.812;2023-02-15T05:23:48;31.90;;;20.20;;
72205;SDS011;60111;48.286;7.812;2023-02-15T05:26:21;36.23;;;19.98;;
72205;SDS011;60111;48.286;7.812;2023-02-15T05:29:13;27.80;;;17.92;;
72205;SDS011;60111;48.286;7.812;2023-02-15T05:31:46;32.58;;;18.70;;
72205;SDS011;60111;48.286;7.812;2023-02-15T05:34:18;27.05;;;16.77;;
72205;SDS011;60111;48.286;7.812;2023-02-15T05:36:51;27.87;;;18.23;;
72205;SDS011;60111;48.286;7.812;2023-02-15T05:39:23;44.53;;;22.52;;
72205;SDS011;60111;48.286;7.812;2023-02-15T05:41:58;30.62;;;18.98;;
72205;SDS011;60111;48.286;7.812;2023-02-15T05:44:31;28.55;;;17.73;;
72205;SDS011;60111;48.286;7.812;2023-02-15T05:47:03;28.30;;;17.90;;
72205;SDS011;60111;48.286;7.812;2023-02-15T05:49:37;30.37;;;18.82;;
72205;SDS011;60111;48.286;7.812;2023-02-15T05:52:10;36.55;;;20.25;;
72205;SDS011;60111;48.286;7.812;2023-02-15T05:54:43;31.82;;;20.25;;
72205;SDS011;60111;48.286;7.812;2023-02-15T05:57:15;36.50;;;21.20;;
72205;SDS011;60111;48.286;7.812;2023-02-15T05:59:48;45.95;;;22.70;;
72205;SDS011;60111;48.286;7.812;2023-02-15T06:02:20;43.20;;;24.02;;
72205;SDS011;60111;48.286;7.812;2023-02-15T06:04:53;40.40;;;21.33;;
72205;SDS011;60111;48.286;7.812;2023-02-15T06:07:25;30.08;;;19.12;;
72205;SDS011;60111;48.286;7.812;2023-02-15T06:09:59;29.52;;;18.65;;
72205;SDS011;60111;48.286;7.812;2023-02-15T06:12:31;33.53;;;18.80;;
72205;SDS011;60111;48.286;7.812;2023-02-15T06:15:04;29.57;;;18.90;;
72205;SDS011;60111;48.286;7.812;2023-02-15T06:17:37;28.15;;;17.82;;
72205;SDS011;60111;48.286;7.812;2023-02-15T06:20:11;34.15;;;22.50;;
72205;SDS011;60111;48.286;7.812;2023-02-15T06:22:44;36.07;;;22.40;;
72205;SDS011;60111;48.286;7.812;2023-02-15T06:25:17;26.53;;;17.70;;
72205;SDS011;60111;48.286;7.812;2023-02-15T06:27:50;23.90;;;15.75;;
72205;SDS011;60111;48.286;7.812;2023-02-15T06:30:22;30.82;;;17.15;;
72205;SDS011;60111;48.286;7.812;2023-02-15T06:32:55;25.27;;;15.83;;
72205;SDS011;60111;48.286;7.812;2023-02-15T06:35:27;25.25;;;15.88;;
72205;SDS011;60111;48.286;7.812;2023-02-15T06:38:00;24.63;;;16.32;;
72205;SDS011;60111;48.286;7.812;2023-02-15T06:40:33;26.75;;;16.45;;
72205;SDS011;60111;48.286;7.812;2023-02-15T06:43:05;32.13;;;20.35;;
72205;SDS011;60111;48.286;7.812;2023-02-15T06:45:38;27.80;;;16.55;;
72205;SDS011;60111;48.286;7.812;2023-02-15T06:48:10;22.55;;;16.00;;
72205;SDS011;60111;48.286;7.812;2023-02-15T06:50:43;27.93;;;17.23;;
72205;SDS011;60111;48.286;7.812;2023-02-15T06:53:15;31.25;;;18.92;;
72205;SDS011;60111;48.286;7.812;2023-02-15T06:55:48;28.67;;;17.90;;
72205;SDS011;60111;48.286;7.812;2023-02-15T06:58:21;34.95;;;17.77;;
72205;SDS011;60111;48.286;7.812;2023-02-15T07:00:53;22.97;;;15.37;;
72205;SDS011;60111;48.286;7.812;2023-02-15T07:03:26;24.60;;;15.43;;
72205;SDS011;60111;48.286;7.812;2023-02-15T07:06:00;28.98;;;17.77;;
72205;SDS011;60111;48.286;7.812;2023-02-15T07:08:36;26.15;;;16.50;;
72205;SDS011;60111;48.286;7.812;2023-02-15T07:11:10;23.02;;;15.38;;
72205;SDS011;60111;48.286;7.812;2023-02-15T07:14:00;27.05;;;16.95;;
72205;SDS011;60111;48.286;7.812;2023-02-15T07:16:33;28.55;;;17.42;;
72205;SDS011;60111;48.286;7.812;2023-02-15T07:19:05;25.72;;;16.70;;
72205;SDS011;60111;48.286;7.812;2023-02-15T07:21:38;28.20;;;16.20;;
72205;SDS011;60111;48.286;7.812;2023-02-15T07:24:10;25.95;;;17.40;;
72205;SDS011;60111;48.286;7.812;2023-02-15T07:26:43;28.17;;;18.00;;
72205;SDS011;60111;48.286;7.812;2023-02-15T07:29:16;28.62;;;17.30;;
72205;SDS011;60111;48.286;7.812;2023-02-15T07:31:48;26.30;;;16.97;;
72205;SDS011;60111;48.286;7.812;2023-02-15T07:34:21;24.80;;;15.60;;
72205;SDS011;60111;48.286;7.812;2023-02-15T07:36:53;25.23;;;16.70;;
72205;SDS011;60111;48.286;7.812;2023-02-15T07:39:26;26.87;;;16.67;;
72205;SDS011;60111;48.286;7.812;2023-02-15T07:42:00;26.97;;;16.42;;
72205;SDS011;60111;48.286;7.812;2023-02-15T07:44:32;25.32;;;16.48;;
72205;SDS011;60111;48.286;7.812;2023-02-15T07:47:05;31.30;;;18.45;;
72205;SDS011;60111;48.286;7.812;2023-02-15T07:49:38;27.22;;;17.40;;
72205;SDS011;60111;48.286;7.812;2023-02-15T07:52:10;25.52;;;16.20;;
72205;SDS011;60111;48.286;7.812;2023-02-15T07:54:43;25.88;;;15.88;;
72205;SDS011;60111;48.286;7.812;2023-02-15T07:57:15;25.10;;;17.15;;
72205;SDS011;60111;48.286;7.812;2023-02-15T07:59:48;23.55;;;15.78;;
72205;SDS011;60111;48.286;7.812;2023-02-15T08:02:20;25.73;;;16.77;;
72205;SDS011;60111;48.286;7.812;2023-02-15T08:04:53;23.73;;;15.43;;
72205;SDS011;60111;48.286;7.812;2023-02-15T08:07:25;26.27;;;16.27;;
72205;SDS011;60111;48.286;7.812;2023-02-15T08:09:58;23.85;;;15.88;;
72205;SDS011;60111;48.286;7.812;2023-02-15T08:12:31;25.27;;;16.60;;
72205;SDS011;60111;48.286;7.812;2023-02-15T08:15:03;27.73;;;16.77;;
72205;SDS011;60111;48.286;7.812;2023-02-15T08:17:36;26.97;;;17.27;;
72205;SDS011;60111;48.286;7.812;2023-02-15T08:20:11;24.20;;;15.63;;
72205;SDS011;60111;48.286;7.812;2023-02-15T08:22:44;26.77;;;16.35;;
72205;SDS011;60111;48.286;7.812;2023-02-15T08:25:16;26.27;;;16.95;;
72205;SDS011;60111;48.286;7.812;2023-02-15T08:27:49;26.57;;;16.45;;
72205;SDS011;60111;48.286;7.812;2023-02-15T08:30:22;25.82;;;16.42;;
72205;SDS011;60111;48.286;7.812;2023-02-15T08:32:54;25.90;;;16.90;;
72205;SDS011;60111;48.286;7.812;2023-02-15T08:35:27;31.82;;;19.25;;
72205;SDS011;60111;48.286;7.812;2023-02-15T08:37:59;28.90;;;17.85;;
72205;SDS011;60111;48.286;7.812;2023-02-15T08:40:32;30.43;;;19.25;;
72205;SDS011;60111;48.286;7.812;2023-02-15T08:43:05;31.97;;;19.55;;
72205;SDS011;60111;48.286;7.812;2023-02-15T08:45:38;28.12;;;18.30;;
72205;SDS011;60111;48.286;7.812;2023-02-15T08:48:10;28.15;;;17.50;;
72205;SDS011;60111;48.286;7.812;2023-02-15T08:50:43;35.68;;;19.57;;
72205;SDS011;60111;48.286;7.812;2023-02-15T08:53:15;36.10;;;20.37;;
72205;SDS011;60111;48.286;7.812;2023-02-15T08:55:56;35.15;;;21.30;;
72205;SDS011;60111;48.286;7.812;2023-02-15T08:58:30;35.98;;;20.88;;
72205;SDS011;60111;48.286;7.812;2023-02-15T09:01:12;32.48;;;19.37;;
72205;SDS011;60111;48.286;7.812;2023-02-15T09:03:49;38.17;;;21.48;;
72205;SDS011;60111;48.286;7.812;2023-02-15T09:06:26;29.37;;;17.92;;
72205;SDS011;60111;48.286;7.812;2023-02-15T09:09:00;34.37;;;19.80;;
72205;SDS011;60111;48.286;7.812;2023-02-15T09:14:08;33.70;;;20.27;;
72205;SDS011;60111;48.286;7.812;2023-02-15T09:16:44;33.83;;;20.72;;
72205;SDS011;60111;48.286;7.812;2023-02-15T09:19:20;37.17;;;22.30;;
72205;SDS011;60111;48.286;7.812;2023-02-15T09:21:53;38.53;;;22.20;;
72205;SDS011;60111;48.286;7.812;2023-02-15T09:24:26;36.60;;;22.30;;
72205;SDS011;60111;48.286;7.812;2023-02-15T09:26:59;36.50;;;22.32;;
72205;SDS011;60111;48.286;7.812;2023-02-15T09:29:32;36.57;;;20.73;;
72205;SDS011;60111;48.286;7.812;2023-02-15T09:32:05;33.90;;;20.02;;
72205;SDS011;60111;48.286;7.812;2023-02-15T09:34:37;37.35;;;22.77;;
72205;SDS011;60111;48.286;7.812;2023-02-15T09:37:10;40.98;;;23.77;;
72205;SDS011;60111;48.286;7.812;2023-02-15T09:39:43;40.85;;;24.35;;
72205;SDS011;60111;48.286;7.812;2023-02-15T09:42:20;37.10;;;21.70;;
72205;SDS011;60111;48.286;7.812;2023-02-15T09:45:20;40.30;;;21.75;;
72205;SDS011;60111;48.286;7.812;2023-02-15T09:48:07;33.18;;;19.70;;
72205;SDS011;60111;48.286;7.812;2023-02-15T09:56:29;38.50;;;22.30;;
72205;SDS011;60111;48.286;7.812;2023-02-15T10:08:09;39.03;;;22.75;;
72205;SDS011;60111;48.286;7.812;2023-02-15T10:11:13;35.28;;;21.33;;
72205;SDS011;60111;48.286;7.812;2023-02-15T10:17:14;36.98;;;21.93;;
72205;SDS011;60111;48.286;7.812;2023-02-15T10:22:35;37.58;;;21.70;;
72205;SDS011;60111;48.286;7.812;2023-02-15T10:28:15;37.50;;;22.05;;
72205;SDS011;60111;48.286;7.812;2023-02-15T10:39:08;33.45;;;21.17;;
72205;SDS011;60111;48.286;7.812;2023-02-15T10:44:33;39.85;;;23.67;;
72205;SDS011;60111;48.286;7.812;2023-02-15T10:50:21;43.35;;;25.52;;
72205;SDS011;60111;48.286;7.812;2023-02-15T10:56:03;44.08;;;25.92;;
72205;SDS011;60111;48.286;7.812;2023-02-15T11:01:40;44.03;;;27.70;;
72205;SDS011;60111;48.286;7.812;2023-02-15T11:04:36;44.33;;;25.27;;
72205;SDS011;60111;48.286;7.812;2023-02-15T11:07:18;46.13;;;25.33;;
72205;SDS011;60111;48.286;7.812;2023-02-15T11:12:49;41.35;;;24.20;;
72205;SDS011;60111;48.286;7.812;2023-02-15T11:21:11;48.42;;;26.97;;
72205;SDS011;60111;48.286;7.812;2023-02-15T11:23:51;49.10;;;27.57;;
72205;SDS011;60111;48.286;7.812;2023-02-15T11:31:54;46.35;;;26.55;;
72205;SDS011;60111;48.286;7.812;2023-02-15T11:35:19;42.33;;;26.15;;
72205;SDS011;60111;48.286;7.812;2023-02-15T11:37:12;48.68;;;28.30;;
72205;SDS011;60111;48.286;7.812;2023-02-15T11:39:41;47.85;;;27.82;;
72205;SDS011;60111;48.286;7.812;2023-02-15T11:42:16;41.23;;;25.00;;
72205;SDS011;60111;48.286;7.812;2023-02-15T11:47:30;49.65;;;27.90;;
72205;SDS011;60111;48.286;7.812;2023-02-15T11:50:03;41.48;;;26.27;;
72205;SDS011;60111;48.286;7.812;2023-02-15T11:52:36;41.90;;;24.17;;
72205;SDS011;60111;48.286;7.812;2023-02-15T11:55:17;45.70;;;26.97;;
72205;SDS011;60111;48.286;7.812;2023-02-15T11:57:47;37.65;;;23.73;;
72205;SDS011;60111;48.286;7.812;2023-02-15T12:03:17;39.55;;;24.67;;
72205;SDS011;60111;48.286;7.812;2023-02-15T12:06:00;42.08;;;25.02;;
72205;SDS011;60111;48.286;7.812;2023-02-15T12:08:37;42.93;;;24.67;;
72205;SDS011;60111;48.286;7.812;2023-02-15T12:11:29;44.20;;;26.52;;
72205;SDS011;60111;48.286;7.812;2023-02-15T12:14:03;40.75;;;24.43;;
72205;SDS011;60111;48.286;7.812;2023-02-15T12:16:41;46.25;;;26.80;;
72205;SDS011;60111;48.286;7.812;2023-02-15T12:19:32;42.30;;;25.10;;
72205;SDS011;60111;48.286;7.812;2023-02-15T12:24:44;41.20;;;25.72;;
72205;SDS011;60111;48.286;7.812;2023-02-15T12:27:27;39.83;;;24.37;;
72205;SDS011;60111;48.286;7.812;2023-02-15T12:30:06;37.05;;;22.85;;
72205;SDS011;60111;48.286;7.812;2023-02-15T12:32:49;42.45;;;26.52;;
72205;SDS011;60111;48.286;7.812;2023-02-15T12:35:32;40.45;;;25.82;;
72205;SDS011;60111;48.286;7.812;2023-02-15T12:38:03;41.92;;;24.72;;
72205;SDS011;60111;48.286;7.812;2023-02-15T12:40:44;43.02;;;25.95;;
72205;SDS011;60111;48.286;7.812;2023-02-15T12:43:31;43.85;;;26.27;;
72205;SDS011;60111;48.286;7.812;2023-02-15T12:49:18;41.98;;;26.00;;
72205;SDS011;60111;48.286;7.812;2023-02-15T12:54:29;42.20;;;25.40;;
72205;SDS011;60111;48.286;7.812;2023-02-15T12:57:20;42.17;;;25.45;;
72205;SDS011;60111;48.286;7.812;2023-02-15T12:59:54;37.05;;;23.95;;
72205;SDS011;60111;48.286;7.812;2023-02-15T13:16:32;31.53;;;21.07;;
72205;SDS011;60111;48.286;7.812;2023-02-15T13:19:10;42.13;;;25.60;;
72205;SDS011;60111;48.286;7.812;2023-02-15T13:21:46;44.05;;;25.60;;
72205;SDS011;60111;48.286;7.812;2023-02-15T13:24:20;36.73;;;23.47;;
72205;SDS011;60111;48.286;7.812;2023-02-15T13:26:55;39.35;;;24.87;;
72205;SDS011;60111;48.286;7.812;2023-02-15T13:29:31;39.00;;;24.57;;
72205;SDS011;60111;48.286;7.812;2023-02-15T13:32:10;42.38;;;26.15;;
72205;SDS011;60111;48.286;7.812;2023-02-15T13:34:58;40.90;;;26.27;;
72205;SDS011;60111;48.286;7.812;2023-02-15T13:37:48;42.25;;;25.57;;
72205;SDS011;60111;48.286;7.812;2023-02-15T13:45:56;44.93;;;27.13;;
72205;SDS011;60111;48.286;7.812;2023-02-15T13:48:51;46.10;;;25.93;;
72205;SDS011;60111;48.286;7.812;2023-02-15T13:54:28;45.23;;;26.68;;
72205;SDS011;60111;48.286;7.812;2023-02-15T14:22:52;48.33;;;26.80;;
72205;SDS011;60111;48.286;7.812;2023-02-15T14:25:33;42.10;;;26.20;;
72205;SDS011;60111;48.286;7.812;2023-02-15T14:31:15;45.12;;;27.32;;
72205;SDS011;60111;48.286;7.812;2023-02-15T14:33:53;37.60;;;24.55;;
72205;SDS011;60111;48.286;7.812;2023-02-15T14:36:26;43.48;;;26.25;;
72205;SDS011;60111;48.286;7.812;2023-02-15T14:39:11;49.07;;;28.93;;
72205;SDS011;60111;48.286;7.812;2023-02-15T14:41:45;47.73;;;27.67;;
72205;SDS011;60111;48.286;7.812;2023-02-15T14:44:23;44.25;;;27.20;;
72205;SDS011;60111;48.286;7.812;2023-02-15T14:47:28;44.25;;;28.30;;
72205;SDS011;60111;48.286;7.812;2023-02-15T14:49:49;45.45;;;28.27;;
72205;SDS011;60111;48.286;7.812;2023-02-15T14:52:22;42.23;;;27.90;;
72205;SDS011;60111;48.286;7.812;2023-02-15T14:54:55;40.25;;;25.95;;
72205;SDS011;60111;48.286;7.812;2023-02-15T14:57:29;40.67;;;26.85;;
72205;SDS011;60111;48.286;7.812;2023-02-15T15:00:04;46.75;;;29.15;;
72205;SDS011;60111;48.286;7.812;2023-02-15T15:02:48;42.17;;;26.77;;
72205;SDS011;60111;48.286;7.812;2023-02-15T15:06:19;43.85;;;27.05;;
72205;SDS011;60111;48.286;7.812;2023-02-15T15:08:17;42.03;;;25.75;;
72205;SDS011;60111;48.286;7.812;2023-02-15T15:10:43;46.45;;;27.80;;
72205;SDS011;60111;48.286;7.812;2023-02-15T15:16:28;45.63;;;27.07;;
72205;SDS011;60111;48.286;7.812;2023-02-15T15:19:11;44.18;;;27.62;;
72205;SDS011;60111;48.286;7.812;2023-02-15T15:35:28;41.73;;;25.40;;
72205;SDS011;60111;48.286;7.812;2023-02-15T15:44:01;42.67;;;26.82;;
72205;SDS011;60111;48.286;7.812;2023-02-15T15:49:30;49.03;;;29.27;;
72205;SDS011;60111;48.286;7.812;2023-02-15T15:52:12;50.38;;;29.18;;
72205;SDS011;60111;48.286;7.812;2023-02-15T15:54:54;43.50;;;27.80;;
72205;SDS011;60111;48.286;7.812;2023-02-15T15:57:29;42.93;;;26.20;;
72205;SDS011;60111;48.286;7.812;2023-02-15T16:03:20;42.62;;;27.93;;
72205;SDS011;60111;48.286;7.812;2023-02-15T16:05:47;45.03;;;28.05;;
72205;SDS011;60111;48.286;7.812;2023-02-15T16:08:29;51.20;;;30.02;;
72205;SDS011;60111;48.286;7.812;2023-02-15T16:13:49;52.30;;;31.68;;
72205;SDS011;60111;48.286;7.812;2023-02-15T16:16:24;50.92;;;30.62;;
72205;SDS011;60111;48.286;7.812;2023-02-15T16:18:59;46.15;;;29.90;;
72205;SDS011;60111;48.286;7.812;2023-02-15T16:21:34;51.58;;;33.28;;
72205;SDS011;60111;48.286;7.812;2023-02-15T16:24:20;51.40;;;31.85;;
72205;SDS011;60111;48.286;7.812;2023-02-15T16:29:50;49.67;;;29.77;;
72205;SDS011;60111;48.286;7.812;2023-02-15T16:32:24;47.00;;;29.50;;
72205;SDS011;60111;48.286;7.812;2023-02-15T16:34:58;52.33;;;31.15;;
72205;SDS011;60111;48.286;7.812;2023-02-15T16:37:33;52.62;;;31.65;;
72205;SDS011;60111;48.286;7.812;2023-02-15T16:40:34;50.92;;;31.97;;
72205;SDS011;60111;48.286;7.812;2023-02-15T16:43:00;53.08;;;33.23;;
72205;SDS011;60111;48.286;7.812;2023-02-15T16:45:33;50.50;;;30.30;;
72205;SDS011;60111;48.286;7.812;2023-02-15T16:48:11;51.55;;;32.42;;
72205;SDS011;60111;48.286;7.812;2023-02-15T16:50:57;55.13;;;33.43;;
72205;SDS011;60111;48.286;7.812;2023-02-15T16:53:27;56.90;;;33.58;;
72205;SDS011;60111;48.286;7.812;2023-02-15T16:56:01;58.55;;;37.48;;
72205;SDS011;60111;48.286;7.812;2023-02-15T16:58:37;56.83;;;35.90;;
72205;SDS011;60111;48.286;7.812;2023-02-15T17:01:15;62.83;;;36.53;;
72205;SDS011;60111;48.286;7.812;2023-02-15T17:03:50;62.23;;;36.20;;
72205;SDS011;60111;48.286;7.812;2023-02-15T17:06:25;107.25;;;36.68;;
72205;SDS011;60111;48.286;7.812;2023-02-15T17:09:04;59.13;;;33.60;;
72205;SDS011;60111;48.286;7.812;2023-02-15T17:11:42;56.00;;;34.10;;
72205;SDS011;60111;48.286;7.812;2023-02-15T17:14:26;65.75;;;38.15;;
72205;SDS011;60111;48.286;7.812;2023-02-15T17:17:15;66.25;;;40.52;;
72205;SDS011;60111;48.286;7.812;2023-02-15T17:19:48;66.40;;;40.67;;
72205;SDS011;60111;48.286;7.812;2023-02-15T17:22:24;58.65;;;36.45;;
72205;SDS011;60111;48.286;7.812;2023-02-15T17:25:02;56.80;;;34.92;;
72205;SDS011;60111;48.286;7.812;2023-02-15T17:27:35;59.23;;;36.53;;
72205;SDS011;60111;48.286;7.812;2023-02-15T17:30:15;56.92;;;34.13;;
72205;SDS011;60111;48.286;7.812;2023-02-15T17:32:55;59.93;;;35.52;;
72205;SDS011;60111;48.286;7.812;2023-02-15T17:35:33;52.35;;;32.40;;
72205;SDS011;60111;48.286;7.812;2023-02-15T17:38:20;56.83;;;34.30;;
72205;SDS011;60111;48.286;7.812;2023-02-15T17:40:52;54.10;;;33.58;;
72205;SDS011;60111;48.286;7.812;2023-02-15T17:43:25;55.73;;;33.18;;
72205;SDS011;60111;48.286;7.812;2023-02-15T17:45:57;57.38;;;35.70;;
72205;SDS011;60111;48.286;7.812;2023-02-15T17:48:31;53.17;;;32.25;;
72205;SDS011;60111;48.286;7.812;2023-02-15T17:51:11;57.87;;;35.60;;
72205;SDS011;60111;48.286;7.812;2023-02-15T17:53:44;58.75;;;33.25;;
72205;SDS011;60111;48.286;7.812;2023-02-15T17:56:36;47.35;;;30.80;;
72205;SDS011;60111;48.286;7.812;2023-02-15T17:59:09;48.68;;;31.25;;
72205;SDS011;60111;48.286;7.812;2023-02-15T18:01:45;55.85;;;34.53;;
72205;SDS011;60111;48.286;7.812;2023-02-15T18:04:37;52.67;;;33.08;;
72205;SDS011;60111;48.286;7.812;2023-02-15T18:07:28;47.35;;;30.97;;
72205;SDS011;60111;48.286;7.812;2023-02-15T18:10:18;51.83;;;33.78;;
72205;SDS011;60111;48.286;7.812;2023-02-15T18:13:08;47.08;;;30.48;;
72205;SDS011;60111;48.286;7.812;2023-02-15T18:15:41;51.58;;;32.40;;
72205;SDS011;60111;48.286;7.812;2023-02-15T18:18:14;57.05;;;35.78;;
72205;SDS011;60111;48.286;7.812;2023-02-15T18:20:46;48.68;;;31.40;;
72205;SDS011;60111;48.286;7.812;2023-02-15T18:23:19;42.45;;;28.73;;
72205;SDS011;60111;48.286;7.812;2023-02-15T18:25:52;53.23;;;32.90;;